createdAt,value
2018-09-12T00:00:31.170Z,0
2018-09-12T00:01:11.690Z,0
2018-09-12T00:01:52.215Z,0
2018-09-12T00:02:32.735Z,0
2018-09-12T00:03:13.266Z,0
2018-09-12T00:03:53.805Z,0
2018-09-12T00:04:34.318Z,0
2018-09-12T00:05:14.832Z,0
2018-09-12T00:05:55.355Z,0
2018-09-12T00:06:35.891Z,0
2018-09-12T00:07:16.410Z,0
2018-09-12T00:07:56.914Z,0
2018-09-12T00:08:37.445Z,0
2018-09-12T00:09:17.961Z,0
2018-09-12T00:09:58.497Z,0
2018-09-12T00:10:38.985Z,0
2018-09-12T00:11:19.526Z,0
2018-09-12T00:12:00.054Z,0
2018-09-12T00:12:40.572Z,0
2018-09-12T00:13:21.110Z,0
2018-09-12T00:14:01.611Z,0
2018-09-12T00:14:42.122Z,0
2018-09-12T00:15:22.669Z,0
2018-09-12T00:16:03.177Z,0
2018-09-12T00:16:43.697Z,0
2018-09-12T00:17:24.220Z,0
2018-09-12T00:18:04.772Z,0
2018-09-12T00:18:45.258Z,0
2018-09-12T00:19:25.780Z,0
2018-09-12T00:20:06.335Z,0
2018-09-12T00:20:46.817Z,0
2018-09-12T00:21:27.338Z,0
2018-09-12T00:22:07.869Z,0
2018-09-12T00:22:48.377Z,0
2018-09-12T00:23:28.900Z,0
2018-09-12T00:24:09.429Z,0
2018-09-12T00:24:49.997Z,0
2018-09-12T00:25:30.664Z,0
2018-09-12T00:26:11.182Z,0
2018-09-12T00:26:51.718Z,0
2018-09-12T00:27:32.269Z,0
2018-09-12T00:28:12.769Z,0
2018-09-12T00:28:53.318Z,0
2018-09-12T00:29:33.878Z,0
2018-09-12T00:30:14.397Z,0
2018-09-12T00:30:54.919Z,0
2018-09-12T00:31:35.446Z,0
2018-09-12T00:32:15.957Z,0
2018-09-12T00:32:56.481Z,0
2018-09-12T00:33:36.993Z,0
2018-09-12T00:34:17.521Z,0
2018-09-12T00:34:58.045Z,0
2018-09-12T00:35:38.567Z,0
2018-09-12T00:37:56.974Z,0
2018-09-12T00:38:37.476Z,0
2018-09-12T00:39:18.009Z,0
2018-09-12T00:39:58.511Z,0
2018-09-12T00:40:39.025Z,0
2018-09-12T00:41:19.509Z,0
2018-09-12T00:42:00.049Z,0
2018-09-12T00:42:40.594Z,0
2018-09-12T00:43:21.105Z,0
2018-09-12T00:44:01.603Z,0
2018-09-12T00:44:42.128Z,0
2018-09-12T00:45:22.638Z,0
2018-09-12T00:46:03.141Z,0
2018-09-12T00:46:43.681Z,0
2018-09-12T00:47:24.200Z,0
2018-09-12T00:48:04.715Z,0
2018-09-12T00:48:45.257Z,0
2018-09-12T00:49:26.008Z,0
2018-09-12T00:50:06.594Z,0
2018-09-12T00:50:47.117Z,0
2018-09-12T00:51:27.628Z,0
2018-09-12T00:52:08.142Z,0
2018-09-12T00:52:48.643Z,0
2018-09-12T00:53:29.170Z,0
2018-09-12T00:54:09.696Z,0
2018-09-12T00:54:50.228Z,0
2018-09-12T00:55:30.740Z,0
2018-09-12T00:56:11.284Z,0
2018-09-12T00:56:51.769Z,0
2018-09-12T00:57:32.279Z,0
2018-09-12T00:58:12.815Z,0
2018-09-12T00:58:53.328Z,0
2018-09-12T00:59:34.036Z,0
2018-09-12T01:00:14.583Z,0
2018-09-12T01:00:55.100Z,0
2018-09-12T01:01:35.627Z,0
2018-09-12T01:02:16.154Z,0
2018-09-12T01:02:56.665Z,0
2018-09-12T01:03:37.176Z,0
2018-09-12T01:04:17.700Z,0
2018-09-12T01:04:58.243Z,0
2018-09-12T01:05:38.748Z,0
2018-09-12T01:06:19.266Z,0
2018-09-12T01:06:59.926Z,0
2018-09-12T01:07:40.452Z,0
2018-09-12T01:08:20.980Z,0
2018-09-12T01:09:01.516Z,0
2018-09-12T01:09:42.032Z,0
2018-09-12T01:10:22.552Z,0
2018-09-12T01:11:03.097Z,0
2018-09-12T01:11:43.599Z,0
2018-09-12T01:12:24.105Z,0
2018-09-12T01:13:04.624Z,0
2018-09-12T01:13:45.163Z,0
2018-09-12T01:14:25.690Z,0
2018-09-12T01:15:06.229Z,0
2018-09-12T01:15:46.763Z,0
2018-09-12T01:16:27.297Z,0
2018-09-12T01:17:07.816Z,0
2018-09-12T01:17:48.316Z,0
2018-09-12T01:18:28.849Z,0
2018-09-12T01:19:09.362Z,0
2018-09-12T01:19:49.879Z,0
2018-09-12T01:20:30.402Z,0
2018-09-12T01:21:10.946Z,0
2018-09-12T01:21:51.435Z,0
2018-09-12T01:22:31.952Z,0
2018-09-12T01:23:12.507Z,0
2018-09-12T01:23:53.017Z,0
2018-09-12T01:24:33.536Z,0
2018-09-12T01:25:14.052Z,0
2018-09-12T01:25:54.567Z,0
2018-09-12T01:26:35.117Z,0
2018-09-12T01:27:15.604Z,0
2018-09-12T01:27:56.140Z,0
2018-09-12T01:28:36.651Z,0
2018-09-12T01:29:17.250Z,0
2018-09-12T01:29:57.755Z,0
2018-09-12T01:30:38.267Z,0
2018-09-12T01:31:18.796Z,0
2018-09-12T01:31:59.315Z,0
2018-09-12T01:32:39.827Z,0
2018-09-12T01:33:20.351Z,0
2018-09-12T01:34:00.869Z,0
2018-09-12T01:34:41.391Z,0
2018-09-12T01:35:21.901Z,0
2018-09-12T01:36:02.420Z,0
2018-09-12T01:36:42.929Z,0
2018-09-12T01:37:23.462Z,0
2018-09-12T01:38:03.968Z,0
2018-09-12T01:38:44.470Z,0
2018-09-12T01:39:25.015Z,0
2018-09-12T01:40:05.511Z,0
2018-09-12T01:40:46.028Z,0
2018-09-12T01:41:26.552Z,0
2018-09-12T01:42:07.067Z,0
2018-09-12T01:42:47.583Z,0
2018-09-12T01:43:28.101Z,0
2018-09-12T01:44:08.615Z,0
2018-09-12T01:44:49.132Z,0
2018-09-12T01:45:29.656Z,0
2018-09-12T01:46:10.186Z,0
2018-09-12T01:46:50.717Z,0
2018-09-12T01:47:31.245Z,0
2018-09-12T01:48:11.752Z,0
2018-09-12T01:48:52.276Z,0
2018-09-12T01:49:32.790Z,0
2018-09-12T01:50:13.310Z,0
2018-09-12T01:50:53.841Z,0
2018-09-12T01:51:34.403Z,0
2018-09-12T01:52:14.951Z,0
2018-09-12T01:52:55.463Z,0
2018-09-12T01:53:35.973Z,0
2018-09-12T01:54:16.503Z,0
2018-09-12T01:54:56.990Z,0
2018-09-12T01:55:37.508Z,0
2018-09-12T01:56:18.021Z,0
2018-09-12T01:56:58.533Z,0
2018-09-12T01:57:39.052Z,0
2018-09-12T01:58:19.566Z,0
2018-09-12T01:59:00.083Z,0
2018-09-12T01:59:40.600Z,0
2018-09-12T02:00:21.122Z,0
2018-09-12T02:01:01.633Z,0
2018-09-12T02:01:42.156Z,0
2018-09-12T02:02:22.675Z,0
2018-09-12T02:03:03.193Z,0
2018-09-12T02:03:43.707Z,0
2018-09-12T02:04:24.211Z,0
2018-09-12T02:05:04.734Z,0
2018-09-12T02:05:45.234Z,0
2018-09-12T02:06:25.743Z,0
2018-09-12T02:07:06.273Z,0
2018-09-12T02:07:46.811Z,0
2018-09-12T02:08:27.327Z,0
2018-09-12T02:09:07.853Z,0
2018-09-12T02:09:48.411Z,0
2018-09-12T02:10:28.934Z,0
2018-09-12T02:11:09.459Z,0
2018-09-12T02:11:50.120Z,0
2018-09-12T02:12:30.641Z,0
2018-09-12T02:13:11.160Z,0
2018-09-12T02:13:51.668Z,0
2018-09-12T02:14:32.188Z,0
2018-09-12T02:15:12.704Z,0
2018-09-12T02:15:53.199Z,0
2018-09-12T02:16:33.718Z,0
2018-09-12T02:17:14.237Z,0
2018-09-12T02:17:54.756Z,0
2018-09-12T02:18:35.267Z,0
2018-09-12T02:19:15.777Z,0
2018-09-12T02:19:56.322Z,0
2018-09-12T02:20:36.850Z,0
2018-09-12T02:21:17.382Z,0
2018-09-12T02:21:57.902Z,0
2018-09-12T02:22:38.426Z,0
2018-09-12T02:23:18.961Z,0
2018-09-12T02:23:59.458Z,0
2018-09-12T02:24:40.002Z,0
2018-09-12T02:25:20.519Z,0
2018-09-12T02:26:01.044Z,0
2018-09-12T02:26:41.556Z,0
2018-09-12T02:27:22.078Z,0
2018-09-12T02:28:02.613Z,0
2018-09-12T02:28:43.168Z,0
2018-09-12T02:29:23.690Z,0
2018-09-12T02:30:04.218Z,0
2018-09-12T02:30:44.737Z,0
2018-09-12T02:31:25.260Z,0
2018-09-12T02:32:05.781Z,0
2018-09-12T02:32:46.272Z,0
2018-09-12T02:33:26.815Z,0
2018-09-12T02:34:07.361Z,0
2018-09-12T02:34:47.849Z,0
2018-09-12T02:35:28.370Z,0
2018-09-12T02:36:08.885Z,0
2018-09-12T02:36:49.410Z,0
2018-09-12T02:37:29.937Z,0
2018-09-12T02:38:10.476Z,0
2018-09-12T02:38:50.982Z,0
2018-09-12T02:39:31.499Z,0
2018-09-12T02:40:12.019Z,0
2018-09-12T02:40:52.540Z,0
2018-09-12T02:41:33.174Z,0
2018-09-12T02:42:13.694Z,0
2018-09-12T02:42:54.217Z,0
2018-09-12T02:43:34.744Z,0
2018-09-12T02:44:15.261Z,0
2018-09-12T02:44:55.777Z,0
2018-09-12T02:45:36.291Z,0
2018-09-12T02:46:16.827Z,0
2018-09-12T02:46:57.349Z,0
2018-09-12T02:47:37.856Z,0
2018-09-12T02:48:18.369Z,0
2018-09-12T02:48:58.891Z,0
2018-09-12T02:49:39.417Z,0
2018-09-12T02:50:19.937Z,0
2018-09-12T02:51:00.438Z,0
2018-09-12T02:51:40.960Z,0
2018-09-12T02:52:21.493Z,0
2018-09-12T02:53:02.035Z,0
2018-09-12T02:53:42.555Z,0
2018-09-12T02:54:23.068Z,0
2018-09-12T02:55:03.588Z,0
2018-09-12T02:55:44.093Z,0
2018-09-12T02:56:24.599Z,0
2018-09-12T02:57:05.125Z,0
2018-09-12T02:57:45.640Z,0
2018-09-12T02:58:26.141Z,0
2018-09-12T02:59:06.656Z,0
2018-09-12T02:59:47.173Z,0
2018-09-12T03:00:27.687Z,0
2018-09-12T03:01:08.199Z,0
2018-09-12T03:01:48.808Z,0
2018-09-12T03:02:29.321Z,0
2018-09-12T03:03:09.819Z,0
2018-09-12T03:03:50.345Z,0
2018-09-12T03:04:30.862Z,0
2018-09-12T03:05:11.394Z,0
2018-09-12T03:05:51.955Z,0
2018-09-12T03:06:32.468Z,0
2018-09-12T03:07:12.991Z,0
2018-09-12T03:07:53.571Z,0
2018-09-12T03:08:34.133Z,0
2018-09-12T03:09:14.643Z,0
2018-09-12T03:09:55.162Z,0
2018-09-12T03:10:35.676Z,0
2018-09-12T03:11:16.194Z,0
2018-09-12T03:11:56.710Z,0
2018-09-12T03:12:37.231Z,0
2018-09-12T03:13:17.763Z,0
2018-09-12T03:13:58.293Z,0
2018-09-12T03:14:38.801Z,0
2018-09-12T03:15:19.339Z,0
2018-09-12T03:15:59.865Z,0
2018-09-12T03:16:40.372Z,0
2018-09-12T03:17:20.886Z,0
2018-09-12T03:18:01.396Z,0
2018-09-12T03:18:41.912Z,0
2018-09-12T03:19:22.440Z,0
2018-09-12T03:20:02.950Z,0
2018-09-12T03:20:43.580Z,0
2018-09-12T03:21:23.988Z,0
2018-09-12T03:22:04.513Z,0
2018-09-12T03:22:45.113Z,0
2018-09-12T03:23:25.617Z,0
2018-09-12T03:24:06.142Z,0
2018-09-12T03:24:46.662Z,0
2018-09-12T03:25:27.191Z,0
2018-09-12T03:26:07.726Z,0
2018-09-12T03:26:48.248Z,0
2018-09-12T03:27:28.897Z,0
2018-09-12T03:28:09.407Z,0
2018-09-12T03:28:49.924Z,0
2018-09-12T03:29:30.455Z,0
2018-09-12T03:30:10.970Z,0
2018-09-12T03:30:51.487Z,0
2018-09-12T03:31:32.200Z,0
2018-09-12T03:32:12.714Z,0
2018-09-12T03:32:53.246Z,0
2018-09-12T03:33:34.133Z,0
2018-09-12T03:34:14.655Z,0
2018-09-12T03:34:55.177Z,0
2018-09-12T03:35:35.696Z,0
2018-09-12T03:36:16.219Z,0
2018-09-12T03:36:56.732Z,0
2018-09-12T03:37:37.266Z,0
2018-09-12T03:38:17.795Z,0
2018-09-12T03:38:58.299Z,0
2018-09-12T03:39:38.847Z,0
2018-09-12T03:40:19.362Z,0
2018-09-12T03:40:59.899Z,0
2018-09-12T03:41:40.410Z,0
2018-09-12T03:42:20.900Z,0
2018-09-12T03:43:01.414Z,0
2018-09-12T03:43:41.934Z,0
2018-09-12T03:44:22.482Z,0
2018-09-12T03:45:02.985Z,0
2018-09-12T03:45:43.521Z,0
2018-09-12T03:46:24.066Z,0
2018-09-12T03:47:04.564Z,0
2018-09-12T03:47:45.103Z,0
2018-09-12T03:48:25.620Z,0
2018-09-12T03:49:06.142Z,0
2018-09-12T03:49:46.632Z,0
2018-09-12T03:50:27.637Z,0
2018-09-12T03:51:08.029Z,0
2018-09-12T03:51:48.531Z,0
2018-09-12T03:52:29.040Z,0
2018-09-12T03:53:09.565Z,0
2018-09-12T03:53:50.108Z,0
2018-09-12T03:54:30.634Z,0
2018-09-12T03:55:11.150Z,0
2018-09-12T03:55:51.672Z,0
2018-09-12T03:56:32.182Z,0
2018-09-12T03:57:12.717Z,0
2018-09-12T03:57:53.247Z,0
2018-09-12T03:58:33.765Z,0
2018-09-12T03:59:14.275Z,0
2018-09-12T03:59:54.800Z,0
2018-09-12T04:00:35.339Z,0
2018-09-12T04:01:15.860Z,0
2018-09-12T04:01:56.376Z,0
2018-09-12T04:02:36.936Z,0
2018-09-12T04:03:17.444Z,0
2018-09-12T04:03:57.964Z,0
2018-09-12T04:04:38.491Z,0
2018-09-12T04:05:19.008Z,0
2018-09-12T04:05:59.582Z,0
2018-09-12T04:06:40.100Z,0
2018-09-12T04:07:20.620Z,0
2018-09-12T04:08:01.275Z,0
2018-09-12T04:08:41.789Z,0
2018-09-12T04:09:22.303Z,0
2018-09-12T04:10:02.824Z,0
2018-09-12T04:10:43.371Z,0
2018-09-12T04:11:23.935Z,0
2018-09-12T04:12:04.403Z,0
2018-09-12T04:12:44.940Z,0
2018-09-12T04:13:25.476Z,0
2018-09-12T04:14:05.982Z,0
2018-09-12T04:14:46.492Z,0
2018-09-12T04:15:27.036Z,0
2018-09-12T04:16:07.521Z,0
2018-09-12T04:16:48.075Z,0
2018-09-12T04:17:28.576Z,0
2018-09-12T04:18:09.087Z,0
2018-09-12T04:18:49.611Z,0
2018-09-12T04:19:30.132Z,0
2018-09-12T04:20:10.666Z,0
2018-09-12T04:20:51.230Z,0
2018-09-12T04:21:31.745Z,0
2018-09-12T04:22:12.254Z,0
2018-09-12T04:22:52.756Z,0
2018-09-12T04:23:33.273Z,0
2018-09-12T04:24:13.850Z,0
2018-09-12T04:24:54.347Z,0
2018-09-12T04:25:34.861Z,0
2018-09-12T04:26:15.380Z,0
2018-09-12T04:26:55.889Z,0
2018-09-12T04:27:36.429Z,0
2018-09-12T04:28:16.951Z,0
2018-09-12T04:28:57.470Z,0
2018-09-12T04:29:37.979Z,0
2018-09-12T04:30:18.509Z,0
2018-09-12T04:30:59.019Z,0
2018-09-12T04:31:39.553Z,0
2018-09-12T04:32:20.075Z,0
2018-09-12T04:33:00.597Z,0
2018-09-12T04:33:41.107Z,0
2018-09-12T04:34:21.626Z,0
2018-09-12T04:35:02.164Z,0
2018-09-12T04:35:42.681Z,0
2018-09-12T04:36:23.267Z,0
2018-09-12T04:37:03.771Z,0
2018-09-12T04:37:44.295Z,0
2018-09-12T04:38:24.820Z,0
2018-09-12T04:39:05.352Z,0
2018-09-12T04:39:45.871Z,0
2018-09-12T04:40:26.390Z,0
2018-09-12T04:41:06.913Z,0
2018-09-12T04:41:47.427Z,0
2018-09-12T04:42:27.935Z,0
2018-09-12T04:43:08.479Z,0
2018-09-12T04:43:48.973Z,0
2018-09-12T04:44:29.491Z,0
2018-09-12T04:45:10.020Z,0
2018-09-12T04:45:50.528Z,0
2018-09-12T04:46:31.057Z,0
2018-09-12T04:47:11.582Z,0
2018-09-12T04:47:52.092Z,0
2018-09-12T04:48:32.678Z,0
2018-09-12T04:49:13.120Z,0
2018-09-12T04:49:53.635Z,0
2018-09-12T04:50:34.156Z,0
2018-09-12T04:51:14.683Z,0
2018-09-12T04:51:55.223Z,0
2018-09-12T04:52:35.731Z,0
2018-09-12T04:53:16.254Z,0
2018-09-12T04:53:56.785Z,0
2018-09-12T04:54:37.299Z,0
2018-09-12T04:55:17.817Z,5
2018-09-12T04:55:58.370Z,5
2018-09-12T04:56:38.884Z,5
2018-09-12T04:57:19.407Z,5
2018-09-12T04:57:59.920Z,5
2018-09-12T04:58:40.556Z,5
2018-09-12T04:59:21.076Z,5
2018-09-12T05:00:01.587Z,5
2018-09-12T05:00:42.100Z,5
2018-09-12T05:01:22.630Z,5
2018-09-12T05:02:03.150Z,5
2018-09-12T05:02:43.648Z,5
2018-09-12T05:03:24.185Z,10
2018-09-12T05:04:04.740Z,10
2018-09-12T05:04:45.275Z,10
2018-09-12T05:05:25.789Z,10
2018-09-12T05:06:06.306Z,10
2018-09-12T05:06:46.823Z,10
2018-09-12T05:07:27.362Z,10
2018-09-12T05:08:07.872Z,10
2018-09-12T05:08:48.383Z,10
2018-09-12T05:09:28.918Z,15
2018-09-12T05:10:09.503Z,15
2018-09-12T05:10:50.097Z,15
2018-09-12T05:11:30.641Z,15
2018-09-12T05:12:11.151Z,15
2018-09-12T05:12:51.683Z,15
2018-09-12T05:13:32.245Z,15
2018-09-12T05:14:12.734Z,20
2018-09-12T05:14:53.249Z,20
2018-09-12T05:15:33.766Z,20
2018-09-12T05:16:14.309Z,20
2018-09-12T05:16:54.821Z,20
2018-09-12T05:17:35.335Z,20
2018-09-12T05:18:15.842Z,20
2018-09-12T05:18:56.353Z,20
2018-09-12T05:19:36.871Z,25
2018-09-12T05:20:17.394Z,25
2018-09-12T05:20:57.899Z,25
2018-09-12T05:21:38.456Z,25
2018-09-12T05:22:18.984Z,25
2018-09-12T05:23:00.385Z,25
2018-09-12T05:23:39.980Z,25
2018-09-12T05:24:20.506Z,30
2018-09-12T05:25:01.040Z,30
2018-09-12T05:25:41.540Z,30
2018-09-12T05:26:22.076Z,30
2018-09-12T05:27:02.603Z,30
2018-09-12T05:27:43.127Z,30
2018-09-12T05:28:23.701Z,30
2018-09-12T05:29:04.162Z,35
2018-09-12T05:29:44.693Z,35
2018-09-12T05:30:25.211Z,35
2018-09-12T05:31:05.740Z,35
2018-09-12T05:31:46.234Z,35
2018-09-12T05:32:26.759Z,35
2018-09-12T05:33:07.281Z,35
2018-09-12T05:33:47.816Z,35
2018-09-12T05:34:28.355Z,35
2018-09-12T05:35:08.874Z,35
2018-09-12T05:35:49.390Z,35
2018-09-12T05:36:30.054Z,40
2018-09-12T05:37:10.501Z,40
2018-09-12T05:37:51.013Z,40
2018-09-12T05:38:31.540Z,40
2018-09-12T05:39:12.048Z,40
2018-09-12T05:39:52.581Z,40
2018-09-12T05:40:33.153Z,40
2018-09-12T05:41:13.682Z,40
2018-09-12T05:41:54.212Z,40
2018-09-12T05:42:34.722Z,40
2018-09-12T05:43:15.241Z,40
2018-09-12T05:43:55.797Z,45
2018-09-12T05:44:36.330Z,45
2018-09-12T05:45:16.848Z,45
2018-09-12T05:45:57.370Z,45
2018-09-12T05:46:37.950Z,45
2018-09-12T05:47:18.463Z,45
2018-09-12T05:47:59.013Z,45
2018-09-12T05:48:39.529Z,45
2018-09-12T05:49:20.041Z,50
2018-09-12T05:50:00.636Z,50
2018-09-12T05:50:41.120Z,50
2018-09-12T05:51:21.684Z,50
2018-09-12T05:52:02.194Z,50
2018-09-12T05:52:42.696Z,50
2018-09-12T05:53:23.208Z,50
2018-09-12T05:54:03.732Z,50
2018-09-12T05:54:44.248Z,50
2018-09-12T05:55:24.993Z,50
2018-09-12T05:56:05.523Z,50
2018-09-12T05:56:46.014Z,50
2018-09-12T05:57:26.532Z,55
2018-09-12T05:58:07.059Z,55
2018-09-12T05:58:47.555Z,55
2018-09-12T05:59:28.092Z,55
2018-09-12T06:00:08.619Z,55
2018-09-12T06:00:49.161Z,55
2018-09-12T06:01:29.770Z,55
2018-09-12T06:02:10.207Z,55
2018-09-12T06:02:50.715Z,55
2018-09-12T06:03:31.247Z,55
2018-09-12T06:04:11.760Z,55
2018-09-12T06:04:52.269Z,55
2018-09-12T06:05:32.812Z,55
2018-09-12T06:06:13.415Z,60
2018-09-12T06:06:53.937Z,60
2018-09-12T06:07:34.474Z,60
2018-09-12T06:08:14.981Z,60
2018-09-12T06:08:55.505Z,60
2018-09-12T06:09:36.062Z,60
2018-09-12T06:10:16.575Z,60
2018-09-12T06:10:57.098Z,60
2018-09-12T06:11:37.624Z,60
2018-09-12T06:12:18.146Z,60
2018-09-12T06:12:58.674Z,65
2018-09-12T06:13:39.218Z,65
2018-09-12T06:14:19.754Z,65
2018-09-12T06:15:00.252Z,65
2018-09-12T06:15:40.796Z,65
2018-09-12T06:16:21.335Z,65
2018-09-12T06:17:01.878Z,65
2018-09-12T06:17:42.405Z,70
2018-09-12T06:18:22.902Z,70
2018-09-12T06:19:03.442Z,70
2018-09-12T06:19:43.958Z,70
2018-09-12T06:20:24.522Z,70
2018-09-12T06:21:05.043Z,70
2018-09-12T06:21:45.662Z,70
2018-09-12T06:22:26.179Z,70
2018-09-12T06:23:06.708Z,70
2018-09-12T06:23:47.186Z,70
2018-09-12T06:24:27.683Z,70
2018-09-12T06:25:08.193Z,70
2018-09-12T06:25:48.753Z,70
2018-09-12T06:26:29.235Z,70
2018-09-12T06:27:09.779Z,70
2018-09-12T06:27:50.286Z,70
2018-09-12T06:28:30.812Z,70
2018-09-12T06:29:11.329Z,70
2018-09-12T06:29:51.837Z,70
2018-09-12T06:30:32.380Z,70
2018-09-12T06:31:12.870Z,70
2018-09-12T06:31:53.404Z,70
2018-09-12T06:32:33.943Z,70
2018-09-12T06:33:14.466Z,70
2018-09-12T06:33:54.979Z,70
2018-09-12T06:34:35.513Z,70
2018-09-12T06:35:16.039Z,70
2018-09-12T06:35:56.573Z,70
2018-09-12T06:36:37.131Z,70
2018-09-12T06:37:17.633Z,70
2018-09-12T06:37:58.162Z,70
2018-09-12T06:38:38.715Z,75
2018-09-12T06:39:19.218Z,75
2018-09-12T06:39:59.730Z,75
2018-09-12T06:40:40.235Z,75
2018-09-12T06:41:20.751Z,75
2018-09-12T06:42:01.308Z,75
2018-09-12T06:42:41.832Z,75
2018-09-12T06:43:22.358Z,75
2018-09-12T06:44:02.998Z,75
2018-09-12T06:44:43.575Z,75
2018-09-12T06:45:23.996Z,75
2018-09-12T06:46:04.536Z,75
2018-09-12T06:46:45.067Z,75
2018-09-12T06:47:25.557Z,75
2018-09-12T06:48:06.063Z,75
2018-09-12T06:48:46.577Z,75
2018-09-12T06:49:27.090Z,75
2018-09-12T06:50:07.607Z,75
2018-09-12T06:50:48.120Z,80
2018-09-12T06:51:28.613Z,80
2018-09-12T06:52:09.099Z,80
2018-09-12T06:52:49.670Z,80
2018-09-12T06:53:30.143Z,80
2018-09-12T06:54:10.718Z,80
2018-09-12T06:54:51.223Z,80
2018-09-12T06:55:31.740Z,80
2018-09-12T06:56:12.243Z,80
2018-09-12T06:56:52.781Z,80
2018-09-12T06:57:33.295Z,80
2018-09-12T06:58:13.833Z,80
2018-09-12T06:58:54.326Z,80
2018-09-12T06:59:34.846Z,85
2018-09-12T07:00:15.384Z,90
2018-09-12T07:00:55.958Z,95
2018-09-12T07:01:36.422Z,105
2018-09-12T07:02:16.952Z,115
2018-09-12T07:02:57.482Z,125
2018-09-12T07:03:38.045Z,125
2018-09-12T07:04:18.537Z,130
2018-09-12T07:04:59.046Z,130
2018-09-12T07:05:39.613Z,130
2018-09-12T07:06:20.070Z,130
2018-09-12T07:07:00.600Z,130
2018-09-12T07:07:41.188Z,130
2018-09-12T07:08:21.669Z,130
2018-09-12T07:09:02.173Z,130
2018-09-12T07:09:42.609Z,130
2018-09-12T07:10:23.115Z,130
2018-09-12T07:11:03.653Z,135
2018-09-12T07:11:44.171Z,130
2018-09-12T07:12:24.737Z,130
2018-09-12T07:13:05.211Z,130
2018-09-12T07:13:45.717Z,130
2018-09-12T07:14:26.249Z,130
2018-09-12T07:15:06.686Z,130
2018-09-12T07:17:35.338Z,125
2018-09-12T07:18:15.856Z,125
2018-09-12T07:18:56.375Z,125
2018-09-12T07:19:37.032Z,125
2018-09-12T07:20:17.542Z,125
2018-09-12T07:20:58.054Z,125
2018-09-12T07:21:38.558Z,130
2018-09-12T07:22:19.058Z,125
2018-09-12T07:22:59.542Z,130
2018-09-12T07:23:40.041Z,125
2018-09-12T07:24:20.609Z,125
2018-09-12T07:25:01.002Z,125
2018-09-12T07:25:41.531Z,125
2018-09-12T07:26:21.994Z,125
2018-09-12T07:27:02.522Z,125
2018-09-12T07:27:43.041Z,125
2018-09-12T07:28:23.463Z,125
2018-09-12T07:29:03.992Z,125
2018-09-12T07:29:44.492Z,125
2018-09-12T07:30:25.006Z,125
2018-09-12T07:31:05.554Z,125
2018-09-12T07:31:45.974Z,125
2018-09-12T07:32:26.884Z,120
2018-09-12T07:33:07.357Z,120
2018-09-12T07:33:47.827Z,120
2018-09-12T07:34:28.333Z,115
2018-09-12T07:35:08.857Z,115
2018-09-12T07:35:50.376Z,115
2018-09-12T07:36:30.755Z,110
2018-09-12T07:37:11.245Z,110
2018-09-12T07:37:51.743Z,110
2018-09-12T07:38:32.464Z,105
2018-09-12T07:39:12.823Z,105
2018-09-12T07:39:53.298Z,105
2018-09-12T07:40:33.927Z,105
2018-09-12T07:41:14.318Z,105
2018-09-12T07:41:54.801Z,105
2018-09-12T07:42:35.270Z,105
2018-09-12T07:43:15.795Z,100
2018-09-12T07:43:56.340Z,100
2018-09-12T07:44:36.820Z,100
2018-09-12T07:45:17.365Z,100
2018-09-12T07:45:58.134Z,100
2018-09-12T07:46:38.662Z,100
2018-09-12T07:47:19.200Z,100
2018-09-12T07:47:59.634Z,100
2018-09-12T07:48:40.059Z,100
2018-09-12T07:49:20.571Z,100
2018-09-12T07:50:01.044Z,95
2018-09-12T07:50:41.526Z,95
2018-09-12T07:51:22.039Z,95
2018-09-12T07:52:02.586Z,100
2018-09-12T07:52:43.118Z,95
2018-09-12T07:53:23.618Z,95
2018-09-12T07:54:04.114Z,95
2018-09-12T07:54:44.594Z,95
2018-09-12T07:55:25.090Z,95
2018-09-12T07:56:05.647Z,90
2018-09-12T07:56:46.147Z,90
2018-09-12T07:57:26.626Z,90
2018-09-12T07:58:07.115Z,90
2018-09-12T07:58:47.568Z,90
2018-09-12T07:59:28.214Z,90
2018-09-12T08:00:08.726Z,90
2018-09-12T08:00:49.165Z,90
2018-09-12T08:01:29.687Z,90
2018-09-12T08:02:10.194Z,90
2018-09-12T08:02:50.698Z,90
2018-09-12T08:03:31.192Z,90
2018-09-12T08:04:12.638Z,95
2018-09-12T08:04:53.122Z,90
2018-09-12T08:05:33.638Z,95
2018-09-12T08:06:14.155Z,90
2018-09-12T08:06:54.744Z,90
2018-09-12T08:07:35.273Z,90
2018-09-12T08:08:15.780Z,90
2018-09-12T08:08:56.294Z,90
2018-09-12T08:09:36.782Z,90
2018-09-12T08:10:17.327Z,90
2018-09-12T08:10:57.837Z,90
2018-09-12T08:11:38.325Z,90
2018-09-12T08:12:18.986Z,90
2018-09-12T08:12:59.340Z,90
2018-09-12T08:13:39.830Z,90
2018-09-12T08:14:20.354Z,90
2018-09-12T08:15:00.863Z,90
2018-09-12T08:15:41.464Z,90
2018-09-12T08:16:21.983Z,90
2018-09-12T08:17:02.491Z,90
2018-09-12T08:17:42.987Z,90
2018-09-12T08:18:23.443Z,90
2018-09-12T08:19:04.059Z,90
2018-09-12T08:19:44.588Z,90
2018-09-12T08:20:25.130Z,90
2018-09-12T08:21:05.636Z,90
2018-09-12T08:21:46.180Z,90
2018-09-12T08:22:26.683Z,90
2018-09-12T08:23:07.182Z,90
2018-09-12T08:23:47.708Z,90
2018-09-12T08:24:28.230Z,90
2018-09-12T08:25:08.740Z,90
2018-09-12T08:25:49.293Z,90
2018-09-12T08:26:29.797Z,90
2018-09-12T08:27:10.282Z,90
2018-09-12T08:27:50.846Z,90
2018-09-12T08:28:31.327Z,90
2018-09-12T08:29:11.789Z,90
2018-09-12T08:29:52.287Z,90
2018-09-12T08:30:32.783Z,90
2018-09-12T08:31:13.273Z,90
2018-09-12T08:31:53.825Z,90
2018-09-12T08:32:34.335Z,90
2018-09-12T08:33:14.873Z,90
2018-09-12T08:33:55.423Z,90
2018-09-12T08:34:35.957Z,90
2018-09-12T08:35:16.374Z,90
2018-09-12T08:35:56.909Z,90
2018-09-12T08:36:37.424Z,90
2018-09-12T08:37:17.934Z,90
2018-09-12T08:37:58.473Z,90
2018-09-12T08:40:16.941Z,90
2018-09-12T08:40:57.533Z,90
2018-09-12T08:41:38.027Z,90
2018-09-12T08:42:18.645Z,90
2018-09-12T08:42:59.023Z,90
2018-09-12T08:43:39.541Z,90
2018-09-12T08:44:20.074Z,90
2018-09-12T08:45:00.546Z,90
2018-09-12T08:45:41.072Z,90
2018-09-12T08:46:21.585Z,90
2018-09-12T08:47:02.106Z,90
2018-09-12T08:47:43.322Z,90
2018-09-12T08:48:23.850Z,85
2018-09-12T08:49:04.340Z,85
2018-09-12T08:49:44.818Z,85
2018-09-12T08:50:25.380Z,85
2018-09-12T08:51:05.872Z,85
2018-09-12T08:51:46.391Z,85
2018-09-12T08:52:26.855Z,85
2018-09-12T08:53:07.376Z,85
2018-09-12T08:53:48.068Z,85
2018-09-12T08:54:28.575Z,85
2018-09-12T08:55:09.122Z,85
2018-09-12T08:55:49.638Z,85
2018-09-12T08:56:30.146Z,85
2018-09-12T08:57:10.626Z,85
2018-09-12T08:57:51.126Z,85
2018-09-12T08:58:31.591Z,85
2018-09-12T08:59:12.140Z,85
2018-09-12T08:59:52.636Z,85
2018-09-12T09:00:33.155Z,90
2018-09-12T09:01:13.702Z,85
2018-09-12T09:01:54.175Z,85
2018-09-12T09:02:34.658Z,85
2018-09-12T09:03:15.228Z,85
2018-09-12T09:03:55.729Z,85
2018-09-12T09:04:36.344Z,85
2018-09-12T09:05:16.847Z,85
2018-09-12T09:05:57.337Z,85
2018-09-12T09:06:37.847Z,85
2018-09-12T09:07:18.333Z,85
2018-09-12T09:07:58.957Z,85
2018-09-12T09:08:39.442Z,85
2018-09-12T09:09:19.949Z,85
2018-09-12T09:10:00.469Z,85
2018-09-12T09:10:41.018Z,85
2018-09-12T09:11:21.424Z,85
2018-09-12T09:12:01.956Z,80
2018-09-12T09:12:42.447Z,80
2018-09-12T09:13:22.958Z,80
2018-09-12T09:14:03.452Z,80
2018-09-12T09:14:43.961Z,80
2018-09-12T09:15:24.451Z,85
2018-09-12T09:16:04.999Z,80
2018-09-12T09:16:45.547Z,80
2018-09-12T09:17:26.077Z,80
2018-09-12T09:18:06.476Z,80
2018-09-12T09:18:46.991Z,80
2018-09-12T09:19:27.492Z,80
2018-09-12T09:20:08.097Z,80
2018-09-12T09:20:48.586Z,80
2018-09-12T09:21:29.140Z,80
2018-09-12T09:22:09.665Z,80
2018-09-12T09:22:50.231Z,80
2018-09-12T09:23:31.065Z,80
2018-09-12T09:24:11.568Z,80
2018-09-12T09:24:52.116Z,80
2018-09-12T09:25:32.665Z,80
2018-09-12T09:26:13.266Z,80
2018-09-12T09:26:53.757Z,80
2018-09-12T09:27:34.277Z,80
2018-09-12T09:28:14.971Z,80
2018-09-12T09:28:55.480Z,80
2018-09-12T09:29:36.201Z,80
2018-09-12T09:30:16.749Z,80
2018-09-12T09:30:57.204Z,80
2018-09-12T09:31:37.765Z,80
2018-09-12T09:32:18.273Z,80
2018-09-12T09:32:58.823Z,80
2018-09-12T09:33:39.330Z,80
2018-09-12T09:34:19.844Z,80
2018-09-12T09:35:00.449Z,80
2018-09-12T09:35:40.981Z,80
2018-09-12T09:36:21.403Z,80
2018-09-12T09:37:01.892Z,80
2018-09-12T09:37:42.370Z,80
2018-09-12T09:38:22.872Z,80
2018-09-12T09:39:03.367Z,80
2018-09-12T09:39:43.885Z,80
2018-09-12T09:40:24.371Z,80
2018-09-12T09:41:04.923Z,80
2018-09-12T09:41:45.416Z,80
2018-09-12T09:42:25.912Z,80
2018-09-12T09:43:06.460Z,80
2018-09-12T09:43:46.968Z,80
2018-09-12T09:44:27.448Z,80
2018-09-12T09:45:08.100Z,80
2018-09-12T09:45:48.655Z,80
2018-09-12T09:46:29.114Z,80
2018-09-12T09:47:09.600Z,80
2018-09-12T09:47:50.118Z,80
2018-09-12T09:48:30.673Z,80
2018-09-12T09:49:11.169Z,80
2018-09-12T09:49:51.703Z,80
2018-09-12T09:50:32.168Z,80
2018-09-12T09:51:12.672Z,80
2018-09-12T09:51:53.150Z,80
2018-09-12T09:52:33.608Z,80